Time;durP1;ratioP1;P1;durP2;ratioP2;P2;SDS_P1;SDS_P2;PMS_P1;PMS_P2;Temp;Humidity;BMP_temperature;BMP_pressure;BME280_temperature;BME280_humidity;BME280_pressure;Samples;Min_cycle;Max_cycle;Signal;HPM_P1;HPM_P2
2023/10/23 00:00:15;;;;;;;22.45;7.90;;;13.90;93.20;;;;;;7391036;19;20388;-79
2023/10/23 00:02:43;;;;;;;17.80;7.78;;;13.80;93.20;;;;;;7390003;19;20011;-78
2023/10/23 00:05:15;;;;;;;22.23;8.65;;;13.90;93.30;;;;;;7409712;19;20011;-78
2023/10/23 00:07:45;;;;;;;;;;;13.80;93.30;;;;;;7384379;19;20003;-77
2023/10/23 00:10:13;;;;;;;21.33;7.40;;;13.80;93.40;;;;;;7388630;19;19911;-78
2023/10/23 00:12:47;;;;;;;24.13;7.72;;;13.80;93.30;;;;;;7386776;19;20018;-78
2023/10/23 00:15:16;;;;;;;31.52;7.65;;;13.80;93.30;;;;;;7388969;19;20042;-77
2023/10/23 00:17:46;;;;;;;23.80;8.00;;;13.80;93.30;;;;;;7386404;19;20061;-78
2023/10/23 00:23:28;;;;;;;21.50;7.23;;;13.80;93.30;;;;;;7384014;19;20054;-78
2023/10/23 00:25:57;;;;;;;16.05;7.18;;;13.80;93.10;;;;;;7383555;19;20030;-78
2023/10/23 00:28:26;;;;;;;15.15;7.35;;;13.80;93.00;;;;;;7385832;19;20014;-78
2023/10/23 00:30:55;;;;;;;19.02;7.95;;;13.80;93.00;;;;;;7385554;19;20007;-78
2023/10/23 00:33:23;;;;;;;20.77;7.93;;;13.80;93.00;;;;;;7384972;19;20018;-78
2023/10/23 00:35:52;;;;;;;19.58;8.00;;;13.70;92.90;;;;;;7386705;19;20150;-78
2023/10/23 00:38:21;;;;;;;21.30;9.27;;;13.70;92.90;;;;;;7407319;19;20026;-78
2023/10/23 00:40:52;;;;;;;14.20;8.10;;;13.70;93.00;;;;;;7384942;19;20023;-78
2023/10/23 00:43:23;;;;;;;22.88;8.43;;;13.60;93.00;;;;;;7387016;19;20042;-78
2023/10/23 00:45:55;;;;;;;18.53;8.90;;;13.70;93.00;;;;;;7387032;19;20259;-78
2023/10/23 00:48:27;;;;;;;19.20;7.97;;;13.60;93.00;;;;;;7387913;19;20006;-78
2023/10/23 00:51:00;;;;;;;19.05;8.73;;;13.60;93.00;;;;;;7386414;19;20011;-78
2023/10/23 00:53:33;;;;;;;22.77;9.30;;;13.60;92.90;;;;;;7408124;19;20020;-78
2023/10/23 00:56:07;;;;;;;25.00;8.40;;;13.60;92.90;;;;;;7386993;19;20010;-78
2023/10/23 00:58:41;;;;;;;26.13;9.55;;;13.60;92.90;;;;;;7386873;19;20065;-78
2023/10/23 01:01:12;;;;;;;24.33;8.35;;;13.60;92.90;;;;;;7387924;19;20609;-78
2023/10/23 01:03:41;;;;;;;16.40;8.60;;;13.60;92.70;;;;;;7386341;19;20261;-78
2023/10/23 01:06:12;;;;;;;23.90;9.13;;;13.50;92.60;;;;;;7384573;19;20010;-78
2023/10/23 01:08:41;;;;;;;;;;;13.50;92.60;;;;;;7388325;19;20010;-77
2023/10/23 01:11:13;;;;;;;17.38;8.02;;;13.50;92.60;;;;;;7406531;19;19987;-79
2023/10/23 01:13:41;;;;;;;19.50;8.07;;;13.40;92.60;;;;;;7387736;19;20019;-79
2023/10/23 01:16:10;;;;;;;24.05;8.35;;;13.40;92.60;;;;;;7388287;19;20511;-79
2023/10/23 01:18:39;;;;;;;19.60;8.82;;;13.40;92.60;;;;;;7387514;19;20014;-79
2023/10/23 01:21:08;;;;;;;17.85;7.93;;;13.40;92.70;;;;;;7386435;19;20010;-79
2023/10/23 01:23:39;;;;;;;17.20;8.95;;;13.30;92.70;;;;;;7388251;19;20014;-78
2023/10/23 01:26:11;;;;;;;20.58;8.00;;;13.40;92.80;;;;;;7409722;19;20011;-78
2023/10/23 01:28:40;;;;;;;20.35;8.43;;;13.30;92.70;;;;;;7386764;19;20063;-78
2023/10/23 01:31:09;;;;;;;15.45;7.78;;;13.30;92.90;;;;;;7388661;19;20015;-78
2023/10/23 01:33:39;;;;;;;18.85;7.95;;;13.30;92.90;;;;;;7406640;19;20007;-78
2023/10/23 01:36:08;;;;;;;19.90;7.47;;;13.30;92.90;;;;;;7403594;19;20010;-77
2023/10/23 01:38:37;;;;;;;26.92;7.72;;;13.30;93.20;;;;;;7400490;19;20017;-78
2023/10/23 01:41:06;;;;;;;21.38;7.47;;;13.30;93.30;;;;;;7423066;19;20002;-78
2023/10/23 01:43:37;;;;;;;22.90;9.10;;;13.30;93.30;;;;;;7406157;19;20018;-79
2023/10/23 01:46:06;;;;;;;;;;;13.30;93.40;;;;;;7395031;19;20014;-78
2023/10/23 01:48:34;;;;;;;20.00;7.80;;;13.30;93.30;;;;;;7393584;19;19907;-78
2023/10/23 01:51:04;;;;;;;17.05;8.02;;;13.30;93.30;;;;;;7392474;19;20007;-78
2023/10/23 01:53:32;;;;;;;17.70;8.00;;;13.30;93.20;;;;;;7405168;19;20349;-78
2023/10/23 01:56:10;;;;;;;16.02;8.18;;;13.20;93.00;;;;;;7408237;19;20047;-78
2023/10/23 01:58:41;;;;;;;18.40;7.72;;;13.20;92.90;;;;;;7382680;19;20014;-77
2023/10/23 02:01:20;;;;;;;14.75;7.55;;;13.20;92.90;;;;;;7384100;19;20415;-77
2023/10/23 02:03:49;;;;;;;20.17;7.28;;;13.30;92.90;;;;;;7386148;19;20087;-77
2023/10/23 02:06:18;;;;;;;14.73;7.47;;;13.20;92.90;;;;;;7384897;19;20017;-77
2023/10/23 02:08:46;;;;;;;15.82;7.45;;;13.20;92.90;;;;;;7383090;19;20370;-77
2023/10/23 02:11:15;;;;;;;12.02;7.00;;;13.20;92.90;;;;;;7407079;19;20047;-77
2023/10/23 02:13:46;;;;;;;23.20;7.32;;;13.20;92.80;;;;;;7382558;19;20006;-77
2023/10/23 02:16:15;;;;;;;19.38;7.90;;;13.20;92.60;;;;;;7383677;19;20238;-77
2023/10/23 02:18:44;;;;;;;16.65;7.22;;;13.20;92.60;;;;;;7383466;19;20012;-77
2023/10/23 02:21:13;;;;;;;14.77;7.18;;;13.20;92.70;;;;;;7383855;19;20007;-77
2023/10/23 02:23:42;;;;;;;13.82;7.25;;;13.10;92.80;;;;;;7386965;19;20017;-78
2023/10/23 02:26:10;;;;;;;16.98;6.85;;;13.10;92.80;;;;;;7412125;19;20007;-78
2023/10/23 02:28:39;;;;;;;20.73;7.57;;;13.10;92.70;;;;;;7392025;19;20021;-78
2023/10/23 02:31:10;;;;;;;24.67;8.25;;;13.10;92.70;;;;;;7385342;19;20041;-77
2023/10/23 02:33:39;;;;;;;23.48;7.47;;;13.00;92.80;;;;;;7383632;19;20010;-77
2023/10/23 02:36:09;;;;;;;16.95;7.55;;;13.00;92.70;;;;;;7384203;19;20010;-77
2023/10/23 02:38:37;;;;;;;18.80;7.40;;;13.00;92.70;;;;;;7382360;19;19998;-78
2023/10/23 02:41:06;;;;;;;18.80;7.13;;;13.00;92.70;;;;;;7406077;19;20010;-77
2023/10/23 02:43:35;;;;;;;16.73;6.63;;;13.00;92.80;;;;;;7382755;19;20024;-77
2023/10/23 02:46:04;;;;;;;18.63;6.72;;;13.00;92.80;;;;;;7386169;19;20023;-78
2023/10/23 02:48:36;;;;;;;21.00;7.63;;;13.00;92.90;;;;;;7384327;19;20011;-77
2023/10/23 02:51:04;;;;;;;21.55;7.90;;;13.00;93.00;;;;;;7388599;19;20021;-78
2023/10/23 02:53:34;;;;;;;14.52;6.88;;;13.00;93.00;;;;;;7389284;19;20010;-77
2023/10/23 02:56:02;;;;;;;20.33;7.05;;;13.00;93.00;;;;;;7404291;19;20071;-78
2023/10/23 02:58:33;;;;;;;15.88;6.68;;;13.00;92.90;;;;;;7384292;19;20048;-78
2023/10/23 03:01:02;;;;;;;16.85;7.35;;;13.00;92.90;;;;;;7385523;19;20251;-77
2023/10/23 03:03:33;;;;;;;15.52;6.65;;;13.00;92.80;;;;;;7384410;19;20234;-78
2023/10/23 03:06:04;;;;;;;15.32;6.57;;;12.90;92.80;;;;;;7385428;19;20299;-77
2023/10/23 03:08:33;;;;;;;16.40;5.93;;;12.90;92.90;;;;;;7391697;19;20030;-77
2023/10/23 03:11:03;;;;;;;23.30;7.80;;;12.90;92.90;;;;;;7402189;19;20022;-78
2023/10/23 03:13:37;;;;;;;15.77;6.07;;;12.90;93.00;;;;;;7385549;19;20007;-78
2023/10/23 03:16:07;;;;;;;20.83;6.75;;;13.00;93.00;;;;;;7391978;19;20326;-78
2023/10/23 03:18:35;;;;;;;12.07;6.07;;;12.90;92.90;;;;;;7386111;19;20025;-77
2023/10/23 03:21:07;;;;;;;21.48;6.40;;;12.90;92.90;;;;;;7381374;19;20010;-77
2023/10/23 03:23:36;;;;;;;14.32;5.80;;;12.90;92.90;;;;;;7384082;19;20007;-76
2023/10/23 03:26:05;;;;;;;19.88;5.82;;;12.90;93.00;;;;;;7404346;19;20018;-77
2023/10/23 03:28:34;;;;;;;18.85;6.07;;;12.90;93.00;;;;;;7380878;19;20018;-77
2023/10/23 03:31:04;;;;;;;14.05;6.43;;;12.90;92.80;;;;;;7381940;19;20010;-77
2023/10/23 03:33:33;;;;;;;17.30;7.15;;;12.90;92.80;;;;;;7380697;19;20027;-78
2023/10/23 03:36:02;;;;;;;17.65;6.40;;;12.90;92.80;;;;;;7382619;19;20011;-77
2023/10/23 03:38:33;;;;;;;14.77;5.72;;;12.80;93.20;;;;;;7402214;19;20014;-77
2023/10/23 03:41:02;;;;;;;13.98;6.28;;;12.80;92.90;;;;;;7382420;19;20030;-77
2023/10/23 03:43:32;;;;;;;15.68;5.35;;;12.80;92.90;;;;;;7381303;19;20042;-78
2023/10/23 03:46:05;;;;;;;16.08;5.97;;;12.80;93.00;;;;;;7383547;19;20006;-77
2023/10/23 03:48:37;;;;;;;9.25;5.10;;;12.80;93.10;;;;;;7381724;19;20027;-77
2023/10/23 03:51:06;;;;;;;16.45;5.47;;;12.80;93.00;;;;;;7382434;19;20011;-78
2023/10/23 03:53:38;;;;;;;16.58;5.32;;;12.80;93.00;;;;;;7381857;19;20044;-78
2023/10/23 03:56:07;;;;;;;23.27;5.65;;;12.80;93.10;;;;;;7403503;19;20038;-78
2023/10/23 03:58:36;;;;;;;17.13;5.97;;;12.80;93.20;;;;;;7384569;19;20034;-78
2023/10/23 04:01:07;;;;;;;11.48;5.22;;;12.80;93.20;;;;;;7386111;19;20049;-78
2023/10/23 04:03:35;;;;;;;12.40;4.88;;;12.90;93.00;;;;;;7400744;19;20050;-79
2023/10/23 04:06:05;;;;;;;21.23;5.35;;;12.80;92.90;;;;;;7394941;19;20007;-77
2023/10/23 04:08:37;;;;;;;18.23;5.35;;;12.80;93.10;;;;;;7401906;19;20023;-78
2023/10/23 04:11:06;;;;;;;14.43;5.38;;;12.80;93.20;;;;;;7414199;19;20010;-78
2023/10/23 04:13:37;;;;;;;10.57;4.95;;;12.80;93.20;;;;;;7387388;19;20010;-78
2023/10/23 04:16:06;;;;;;;14.68;5.38;;;12.80;93.20;;;;;;7381792;19;20011;-77
2023/10/23 04:18:35;;;;;;;20.52;5.68;;;12.80;93.10;;;;;;7382643;19;20011;-77
2023/10/23 04:21:05;;;;;;;13.30;5.85;;;12.80;93.00;;;;;;7381108;19;20010;-77
2023/10/23 04:23:37;;;;;;;20.70;5.80;;;12.80;93.00;;;;;;7377526;19;20006;-77
2023/10/23 04:26:05;;;;;;;14.05;5.90;;;12.80;93.10;;;;;;7402736;19;20029;-77
2023/10/23 04:28:35;;;;;;;12.18;5.00;;;12.80;93.10;;;;;;7377952;19;20003;-77
2023/10/23 04:31:04;;;;;;;11.25;5.60;;;12.80;93.10;;;;;;7378287;19;20031;-78
2023/10/23 04:33:32;;;;;;;12.48;5.10;;;12.80;93.20;;;;;;7378089;19;20381;-77
2023/10/23 04:36:02;;;;;;;21.27;6.03;;;12.80;93.20;;;;;;7378202;19;20228;-76
2023/10/23 04:38:31;;;;;;;16.90;5.75;;;12.80;93.10;;;;;;7400754;19;20014;-76
2023/10/23 04:41:02;;;;;;;25.15;6.95;;;12.80;93.00;;;;;;7377148;19;20017;-76
2023/10/23 04:43:33;;;;;;;14.32;5.85;;;12.80;93.00;;;;;;7379356;19;20388;-77
2023/10/23 04:46:01;;;;;;;13.00;6.40;;;12.80;93.20;;;;;;7379636;19;20277;-76
2023/10/23 04:48:30;;;;;;;13.18;5.15;;;12.80;93.20;;;;;;7376821;19;20007;-77
2023/10/23 04:51:03;;;;;;;11.63;5.87;;;12.80;93.20;;;;;;7380766;19;20299;-77
2023/10/23 04:53:32;;;;;;;13.38;5.55;;;12.80;93.30;;;;;;7405680;19;20021;-77
2023/10/23 04:56:08;;;;;;;15.30;5.72;;;12.80;93.70;;;;;;7378304;19;20087;-77
2023/10/23 04:58:38;;;;;;;15.50;5.88;;;12.80;93.30;;;;;;7380986;19;20003;-77
2023/10/23 05:01:06;;;;;;;12.13;5.60;;;12.80;93.30;;;;;;7380693;19;20038;-77
2023/10/23 05:03:35;;;;;;;11.95;5.93;;;12.80;93.40;;;;;;7381206;19;20007;-77
2023/10/23 05:06:04;;;;;;;13.57;5.50;;;12.80;93.50;;;;;;7380736;19;20002;-78
2023/10/23 05:08:33;;;;;;;19.90;5.68;;;12.80;93.60;;;;;;7398137;19;20373;-77
2023/10/23 05:11:12;;;;;;;16.20;5.57;;;12.80;93.70;;;;;;7409891;19;20015;-77
2023/10/23 05:13:41;;;;;;;14.40;5.38;;;12.80;93.70;;;;;;7386180;19;20011;-78
2023/10/23 05:16:12;;;;;;;10.48;5.15;;;12.90;93.60;;;;;;7386027;19;20273;-77
2023/10/23 05:18:42;;;;;;;13.13;5.95;;;12.90;93.60;;;;;;7390708;19;20062;-78
2023/10/23 05:21:11;;;;;;;22.38;6.10;;;12.90;93.60;;;;;;7391232;19;20030;-78
2023/10/23 05:23:40;;;;;;;20.30;5.22;;;12.90;93.50;;;;;;7391196;19;20357;-78
2023/10/23 05:26:12;;;;;;;15.15;5.30;;;12.80;93.40;;;;;;7407486;19;20401;-77
2023/10/23 05:28:42;;;;;;;14.13;5.78;;;12.90;93.50;;;;;;7386284;19;20006;-77
2023/10/23 05:31:10;;;;;;;13.93;5.72;;;12.90;93.50;;;;;;7385260;19;20070;-77
2023/10/23 05:33:39;;;;;;;9.98;5.07;;;12.90;93.50;;;;;;7384861;19;20006;-78
2023/10/23 05:36:10;;;;;;;18.02;5.30;;;12.90;93.60;;;;;;7384257;19;20006;-78
2023/10/23 05:38:39;;;;;;;18.53;6.00;;;12.90;93.70;;;;;;7388289;19;20095;-78
2023/10/23 05:41:11;;;;;;;20.58;6.60;;;12.80;93.70;;;;;;7413382;19;19999;-78
2023/10/23 05:43:39;;;;;;;20.00;6.18;;;12.90;93.80;;;;;;7386418;19;20016;-78
2023/10/23 05:46:08;;;;;;;19.40;6.53;;;12.80;93.90;;;;;;7387954;19;20002;-78
2023/10/23 05:48:37;;;;;;;14.65;5.72;;;12.90;94.20;;;;;;7386688;19;20020;-78
2023/10/23 05:51:07;;;;;;;16.92;5.90;;;12.90;94.10;;;;;;7387209;19;20003;-77
2023/10/23 05:53:37;;;;;;;16.80;5.72;;;12.90;94.20;;;;;;7385477;19;20023;-77
2023/10/23 05:56:06;;;;;;;14.23;5.60;;;12.90;94.20;;;;;;7407565;19;20062;-78
2023/10/23 05:58:38;;;;;;;15.65;5.82;;;12.90;94.20;;;;;;7387193;19;20002;-78
2023/10/23 06:01:07;;;;;;;20.63;4.93;;;12.90;94.20;;;;;;7385939;19;20025;-78
2023/10/23 06:03:36;;;;;;;15.15;5.00;;;13.00;94.50;;;;;;7387657;19;20003;-78
2023/10/23 06:06:05;;;;;;;13.38;4.13;;;13.00;95.10;;;;;;7384997;19;20416;-78
2023/10/23 06:08:34;;;;;;;13.23;4.18;;;13.00;94.90;;;;;;7389278;19;20015;-78
2023/10/23 06:11:04;;;;;;;18.27;6.28;;;13.00;95.00;;;;;;7415407;19;20007;-78
2023/10/23 06:13:32;;;;;;;18.08;5.80;;;13.00;95.20;;;;;;7388763;19;20003;-78
2023/10/23 06:16:07;;;;;;;18.63;5.20;;;13.00;95.10;;;;;;7386190;19;20051;-78
2023/10/23 06:18:40;;;;;;;16.30;4.70;;;13.00;94.90;;;;;;7392207;19;20003;-78
2023/10/23 06:21:10;;;;;;;13.30;5.07;;;13.10;95.10;;;;;;7392235;19;20242;-78
2023/10/23 06:23:40;;;;;;;16.92;5.70;;;13.10;95.00;;;;;;7388378;19;20003;-79
2023/10/23 06:26:09;;;;;;;20.65;6.47;;;13.10;94.90;;;;;;7411209;19;20029;-78
2023/10/23 06:28:40;;;;;;;22.30;6.18;;;13.10;94.70;;;;;;7390016;19;19999;-78
2023/10/23 06:31:13;;;;;;;11.87;5.70;;;13.10;94.60;;;;;;7405208;19;20002;-77
2023/10/23 06:33:42;;;;;;;16.27;5.70;;;13.10;94.70;;;;;;7404168;19;20038;-77
2023/10/23 06:36:11;;;;;;;11.65;5.22;;;13.10;94.70;;;;;;7400501;19;20030;-77
2023/10/23 06:38:40;;;;;;;14.90;5.78;;;13.10;94.70;;;;;;7394034;19;20038;-78
2023/10/23 06:41:10;;;;;;;27.85;12.88;;;13.10;94.80;;;;;;7408523;19;20020;-77
2023/10/23 06:43:39;;;;;;;47.72;21.92;;;13.10;94.90;;;;;;7382563;19;20287;-76
2023/10/23 06:46:10;;;;;;;37.40;13.02;;;13.10;95.00;;;;;;7381342;19;20002;-77
2023/10/23 06:48:44;;;;;;;25.55;10.13;;;13.10;95.10;;;;;;7382894;19;20038;-78
2023/10/23 06:51:13;;;;;;;86.03;36.63;;;13.20;95.10;;;;;;7384976;19;20034;-79
2023/10/23 06:56:49;;;;;;;60.97;28.83;;;13.20;95.10;;;;;;7382569;19;20083;-81
2023/10/23 06:59:17;;;;;;;63.22;24.67;;;13.20;95.10;;;;;;7403993;19;20006;-80
2023/10/23 07:02:14;;;;;;;56.15;23.50;;;13.30;95.20;;;;;;7382738;19;20710;-80
2023/10/23 07:08:39;;;;;;;17.15;6.65;;;13.30;95.40;;;;;;7383040;19;20035;-81
2023/10/23 07:17:34;;;;;;;16.00;6.60;;;13.40;95.30;;;;;;7403180;19;20233;-80
2023/10/23 07:20:06;;;;;;;13.95;5.38;;;13.40;95.30;;;;;;7381582;19;20028;-79
2023/10/23 07:22:39;;;;;;;14.95;4.95;;;13.50;95.40;;;;;;7381677;19;20231;-80
2023/10/23 07:25:09;;;;;;;13.52;4.80;;;13.40;95.30;;;;;;7380734;19;20007;-81
2023/10/23 07:27:38;;;;;;;11.82;4.95;;;13.50;95.50;;;;;;7381181;19;20014;-80
2023/10/23 07:30:11;;;;;;;23.77;4.22;;;13.50;95.60;;;;;;7380546;19;20006;-80
2023/10/23 07:32:45;;;;;;;18.55;3.90;;;13.60;95.70;;;;;;7378583;19;20010;-79
2023/10/23 07:35:20;;;;;;;14.37;3.50;;;13.60;95.80;;;;;;7402134;19;20011;-80
2023/10/23 07:38:08;;;;;;;14.02;3.63;;;13.70;95.90;;;;;;7381362;19;20290;-83
2023/10/23 07:40:51;;;;;;;12.15;2.67;;;13.70;96.00;;;;;;7380140;19;20024;-80
2023/10/23 07:50:21;;;;;;;14.13;3.83;;;13.90;95.80;;;;;;7379529;19;20010;-78
2023/10/23 07:52:52;;;;;;;17.77;2.50;;;13.90;95.80;;;;;;7380955;19;20093;-78
2023/10/23 07:55:22;;;;;;;9.60;2.72;;;14.00;95.90;;;;;;7380747;19;20011;-79
2023/10/23 07:57:54;;;;;;;13.73;2.10;;;14.00;95.90;;;;;;7382431;19;20028;-79
2023/10/23 08:07:22;;;;;;;9.27;2.70;;;14.20;95.60;;;;;;7382385;19;20010;-81
2023/10/23 08:09:50;;;;;;;12.45;2.45;;;14.20;95.50;;;;;;7402679;19;20011;-79
2023/10/23 08:12:19;;;;;;;8.52;2.47;;;14.30;95.50;;;;;;7381430;19;20017;-81
2023/10/23 08:14:50;;;;;;;13.87;3.07;;;14.30;95.50;;;;;;7402012;19;20351;-78
2023/10/23 08:17:20;;;;;;;11.40;3.10;;;14.40;95.40;;;;;;7399191;19;20354;-75
2023/10/23 08:19:49;;;;;;;14.27;2.30;;;14.40;95.80;;;;;;7378845;19;20151;-76
2023/10/23 08:22:17;;;;;;;6.63;2.28;;;14.40;95.30;;;;;;7376603;19;20066;-76
2023/10/23 08:24:56;;;;;;;7.80;2.20;;;14.50;95.20;;;;;;7378747;19;20378;-79
2023/10/23 08:27:24;;;;;;;10.30;2.30;;;14.50;95.30;;;;;;7385963;19;20018;-74
2023/10/23 08:29:53;;;;;;;19.42;2.60;;;14.50;95.20;;;;;;7378436;19;20089;-77
2023/10/23 08:32:22;;;;;;;9.57;2.22;;;14.60;95.20;;;;;;7406386;19;20356;-78
2023/10/23 08:34:53;;;;;;;9.57;2.20;;;14.60;95.20;;;;;;7385718;19;20300;-79
2023/10/23 08:37:28;;;;;;;8.70;2.10;;;14.60;95.20;;;;;;7386712;19;20063;-83
2023/10/23 08:40:00;;;;;;;11.90;1.80;;;14.60;95.20;;;;;;7383858;19;20268;-73
2023/10/23 08:42:29;;;;;;;10.10;2.20;;;14.60;95.20;;;;;;7385527;19;20033;-77
2023/10/23 08:44:59;;;;;;;8.10;2.22;;;14.60;95.10;;;;;;7386330;19;20023;-80
2023/10/23 08:47:34;;;;;;;14.68;2.78;;;14.60;95.20;;;;;;7409790;19;20365;-79
2023/10/23 08:50:03;;;;;;;16.40;2.92;;;14.60;95.10;;;;;;7388412;19;20047;-80
2023/10/23 08:52:36;;;;;;;12.43;2.00;;;14.60;95.10;;;;;;7388382;19;20059;-80
2023/10/23 08:55:13;;;;;;;10.13;2.63;;;14.60;95.10;;;;;;7389562;19;20397;-80
2023/10/23 08:57:49;;;;;;;3.70;1.90;;;14.60;94.90;;;;;;7391825;19;20392;-77
2023/10/23 09:00:18;;;;;;;14.43;2.30;;;14.60;94.90;;;;;;7390710;19;20020;-78
2023/10/23 09:06:03;;;;;;;10.00;2.38;;;14.60;94.90;;;;;;7411780;19;20054;-82
2023/10/23 09:09:17;;;;;;;7.47;2.50;;;14.60;95.00;;;;;;7294870;19;2004370;-82
2023/10/23 09:12:02;;;;;;;5.63;2.25;;;14.60;94.90;;;;;;7392634;19;20064;-80
2023/10/23 09:14:32;;;;;;;11.70;2.47;;;14.60;94.90;;;;;;7413347;19;20252;-79
2023/10/23 09:17:03;;;;;;;9.80;2.63;;;14.60;94.90;;;;;;7388861;19;20003;-79
2023/10/23 09:19:36;;;;;;;9.98;2.47;;;14.60;94.90;;;;;;7387631;19;20067;-79
2023/10/23 09:22:49;;;;;;;13.77;2.25;;;14.60;95.00;;;;;;7365364;19;20046;-83
2023/10/23 09:28:40;;;;;;;9.13;2.08;;;14.60;95.10;;;;;;7385617;19;20017;-77
2023/10/23 09:31:11;;;;;;;3.55;2.00;;;14.60;95.20;;;;;;7387289;19;20367;-81
2023/10/23 09:34:08;;;;;;;7.60;2.67;;;14.50;95.40;;;;;;7385092;19;20014;-82
2023/10/23 09:36:37;;;;;;;20.80;2.88;;;14.60;95.60;;;;;;7382347;19;20011;-77
2023/10/23 09:39:06;;;;;;;8.70;2.72;;;14.60;95.70;;;;;;7379393;19;20032;-77
2023/10/23 09:41:38;;;;;;;13.90;3.22;;;14.60;96.20;;;;;;7381537;19;20115;-79
2023/10/23 09:44:10;;;;;;;12.70;2.58;;;14.60;96.10;;;;;;7405941;19;20015;-80
2023/10/23 09:46:42;;;;;;;11.57;2.92;;;14.60;96.10;;;;;;7382923;19;20064;-79
2023/10/23 10:02:36;;;;;;;9.90;3.17;;;14.60;96.90;;;;;;7378735;19;20255;-78
2023/10/23 10:08:49;;;;;;;7.88;2.50;;;14.70;97.50;;;;;;7383120;19;19922;-80
2023/10/23 10:11:42;;;;;;;8.15;2.83;;;14.70;97.20;;;;;;7386409;19;20086;-80
2023/10/23 10:21:00;;;;;;;12.52;2.60;;;14.90;97.30;;;;;;7382461;19;20003;-77
2023/10/23 10:23:31;;;;;;;6.05;2.38;;;14.90;97.40;;;;;;7405127;19;20418;-78
2023/10/23 10:26:00;;;;;;;7.40;2.88;;;14.90;97.40;;;;;;7382258;19;20021;-79
2023/10/23 10:28:29;;;;;;;7.53;2.78;;;14.90;97.30;;;;;;7384671;19;20011;-78
2023/10/23 10:30:58;;;;;;;9.98;2.50;;;15.00;97.40;;;;;;7381456;19;20017;-79
2023/10/23 10:33:29;;;;;;;11.60;2.88;;;15.00;97.50;;;;;;7385436;19;20010;-79
2023/10/23 10:36:04;;;;;;;12.98;3.05;;;15.00;97.50;;;;;;7383864;19;20011;-77
2023/10/23 10:38:40;;;;;;;11.32;3.05;;;15.00;97.40;;;;;;7399998;19;20074;-81
2023/10/23 10:41:17;;;;;;;8.77;3.20;;;15.00;97.40;;;;;;7336956;19;20002;-79
2023/10/23 10:44:04;;;;;;;8.23;2.78;;;15.00;97.30;;;;;;7405285;19;20035;-81
2023/10/23 10:46:32;;;;;;;7.38;2.67;;;15.00;97.20;;;;;;7383590;19;20007;-77
2023/10/23 10:49:01;;;;;;;12.25;2.97;;;15.00;97.20;;;;;;7383506;19;20007;-79
2023/10/23 10:55:08;;;;;;;12.07;2.88;;;14.90;97.30;;;;;;7382530;19;20111;-79
2023/10/23 11:01:15;;;;;;;10.43;3.67;;;14.90;97.40;;;;;;7382703;19;20010;-80
2023/10/23 11:03:44;;;;;;;12.63;4.20;;;14.90;97.50;;;;;;7408809;19;20017;-78
2023/10/23 11:06:13;;;;;;;13.40;3.28;;;14.80;97.60;;;;;;7381526;19;20011;-78
2023/10/23 11:08:42;;;;;;;9.15;3.45;;;14.80;97.60;;;;;;7378983;19;20007;-78
2023/10/23 11:11:14;;;;;;;11.77;3.83;;;14.80;97.80;;;;;;7402753;19;20028;-78
2023/10/23 11:20:57;;;;;;;11.77;3.67;;;14.70;98.40;;;;;;7404340;19;20007;-83
2023/10/23 11:23:30;;;;;;;12.57;4.32;;;14.70;98.60;;;;;;7380622;19;20009;-77
2023/10/23 11:26:03;;;;;;;15.43;3.90;;;14.70;98.70;;;;;;7379450;19;20006;-79
2023/10/23 11:28:35;;;;;;;28.88;4.32;;;14.70;98.80;;;;;;7379479;19;20014;-78
2023/10/23 11:31:04;;;;;;;16.33;4.15;;;14.70;98.90;;;;;;7378771;19;20017;-78
2023/10/23 11:33:33;;;;;;;9.48;3.65;;;14.70;99.00;;;;;;7379678;19;20003;-77
2023/10/23 11:36:02;;;;;;;15.32;3.92;;;14.70;99.00;;;;;;7381211;19;20010;-78
2023/10/23 11:38:30;;;;;;;8.80;3.72;;;14.70;99.10;;;;;;7401054;19;20019;-76
2023/10/23 11:40:59;;;;;;;10.52;4.13;;;14.70;99.10;;;;;;7377897;19;20071;-76
2023/10/23 11:43:28;;;;;;;12.25;3.90;;;14.70;99.20;;;;;;7377786;19;20502;-75
2023/10/23 11:45:59;;;;;;;16.75;4.65;;;14.70;99.20;;;;;;7377886;19;20194;-76
2023/10/23 11:48:30;;;;;;;18.38;4.13;;;14.70;99.30;;;;;;7379008;19;20228;-78
2023/10/23 11:50:59;;;;;;;7.88;4.10;;;14.70;99.40;;;;;;7378724;19;20030;-77
2023/10/23 11:53:32;;;;;;;12.65;4.93;;;14.70;99.50;;;;;;7398253;19;20010;-76
2023/10/23 11:56:01;;;;;;;14.50;4.50;;;14.70;99.50;;;;;;7377953;19;20010;-76
2023/10/23 11:58:30;;;;;;;14.77;5.03;;;14.70;99.60;;;;;;7378195;19;20415;-76
2023/10/23 12:01:27;;;;;;;18.42;5.55;;;14.70;99.60;;;;;;7387194;19;20010;-82
2023/10/23 12:03:58;;;;;;;19.30;5.80;;;14.70;99.70;;;;;;7408765;19;20015;-78
2023/10/23 12:19:34;;;;;;;10.43;4.90;;;14.70;99.90;;;;;;7407576;19;20709;-78
2023/10/23 12:22:45;;;;;;;15.23;4.72;;;14.70;99.90;;;;;;7384619;19;20033;-80
2023/10/23 12:29:10;;;;;;;17.27;5.15;;;14.80;99.90;;;;;;7357629;19;20034;-84
2023/10/23 12:37:55;;;;;;;7.40;4.10;;;14.80;99.90;;;;;;7381988;19;20068;-79
2023/10/23 12:40:23;;;;;;;13.23;5.10;;;14.80;99.90;;;;;;7379715;19;20017;-79
2023/10/23 12:42:54;;;;;;;11.52;4.68;;;14.90;99.90;;;;;;7380868;19;20013;-78
2023/10/23 12:45:26;;;;;;;11.98;4.45;;;14.90;99.90;;;;;;7380672;19;20019;-81
2023/10/23 12:47:55;;;;;;;13.10;5.28;;;14.90;99.90;;;;;;7377218;19;20047;-79
2023/10/23 12:53:59;;;;;;;10.90;4.63;;;14.90;99.90;;;;;;7380078;19;20007;-82
2023/10/23 13:00:00;;;;;;;12.67;4.87;;;14.80;99.90;;;;;;7380485;19;19983;-81
2023/10/23 13:02:32;;;;;;;10.50;5.57;;;14.80;99.90;;;;;;7400854;19;20025;-79
2023/10/23 13:05:02;;;;;;;;;;;14.80;99.90;;;;;;7382565;19;20031;-80
2023/10/23 13:07:31;;;;;;;14.75;4.75;;;14.80;99.90;;;;;;7381376;19;19971;-80
2023/10/23 13:16:33;;;;;;;14.65;6.05;;;14.80;99.90;;;;;;7399679;19;20362;-80
2023/10/23 13:22:19;;;;;;;11.30;5.18;;;14.90;99.90;;;;;;7399845;19;20295;-79
2023/10/23 13:32:03;;;;;;;14.18;5.40;;;14.90;99.90;;;;;;7404146;19;20043;-83
2023/10/23 13:34:32;;;;;;;8.90;5.22;;;15.00;99.90;;;;;;7320243;19;20010;-77
2023/10/23 13:37:01;;;;;;;10.13;4.85;;;15.00;99.90;;;;;;7406354;19;20019;-79
2023/10/23 13:39:30;;;;;;;14.05;5.70;;;15.10;99.90;;;;;;7383007;19;20050;-78
2023/10/23 13:41:58;;;;;;;10.73;6.13;;;15.10;99.90;;;;;;7383855;19;20077;-78
2023/10/23 13:44:27;;;;;;;40.72;9.35;;;15.10;99.90;;;;;;7410726;19;20015;-79
2023/10/23 13:47:02;;;;;;;14.75;8.25;;;15.10;99.90;;;;;;7384364;19;20024;-77
2023/10/23 13:49:34;;;;;;;11.38;6.63;;;15.10;99.90;;;;;;7385827;19;20263;-77
2023/10/23 13:52:03;;;;;;;;;;;15.10;99.90;;;;;;7385344;19;20029;-78
2023/10/23 13:54:33;;;;;;;13.70;5.25;;;15.10;99.90;;;;;;7383405;19;19911;-78
2023/10/23 13:57:04;;;;;;;13.60;6.05;;;15.10;99.90;;;;;;7384066;19;20071;-79
2023/10/23 13:59:33;;;;;;;13.07;7.65;;;15.00;99.90;;;;;;7392122;19;20011;-75
2023/10/23 14:02:01;;;;;;;15.05;7.15;;;15.10;99.90;;;;;;7399323;19;20006;-74
2023/10/23 14:04:33;;;;;;;9.30;6.40;;;15.10;99.90;;;;;;7383914;19;20028;-74
2023/10/23 14:07:02;;;;;;;9.70;6.35;;;15.10;99.90;;;;;;7380982;19;20365;-75
2023/10/23 14:09:30;;;;;;;16.92;5.72;;;15.10;99.90;;;;;;7382754;19;20248;-73
2023/10/23 14:11:59;;;;;;;10.40;6.10;;;15.10;99.90;;;;;;7380023;19;20002;-75
2023/10/23 14:14:28;;;;;;;10.13;6.05;;;15.10;99.90;;;;;;7401470;19;20002;-75
2023/10/23 14:16:56;;;;;;;13.10;5.97;;;15.10;99.90;;;;;;7380714;19;20019;-76
2023/10/23 14:19:25;;;;;;;14.02;5.97;;;15.00;99.90;;;;;;7379830;19;20066;-75
2023/10/23 14:21:56;;;;;;;9.75;5.85;;;15.10;99.90;;;;;;7377615;19;20033;-75
2023/10/23 14:24:26;;;;;;;;;;;15.10;99.90;;;;;;7378780;19;20370;-76
2023/10/23 14:26:55;;;;;;;9.68;5.45;;;15.10;99.90;;;;;;7380056;19;19911;-73
2023/10/23 14:29:42;;;;;;;9.80;5.82;;;15.10;99.90;;;;;;7401730;19;20014;-80
2023/10/23 14:32:10;;;;;;;14.32;5.22;;;15.20;99.90;;;;;;7383381;19;20028;-76
2023/10/23 14:34:40;;;;;;;10.63;4.85;;;15.20;99.90;;;;;;7382630;19;20015;-77
2023/10/23 14:37:16;;;;;;;11.05;5.90;;;15.20;99.90;;;;;;7382201;19;20018;-78
2023/10/23 14:39:47;;;;;;;11.45;5.72;;;15.20;99.90;;;;;;7381182;19;20521;-77
2023/10/23 14:42:16;;;;;;;13.20;5.45;;;15.20;99.90;;;;;;7382003;19;20068;-80
2023/10/23 14:44:50;;;;;;;9.48;6.15;;;15.10;99.90;;;;;;7385235;19;20074;-79
2023/10/23 14:47:19;;;;;;;13.60;6.78;;;15.10;99.90;;;;;;7404704;19;20023;-78
2023/10/23 14:49:48;;;;;;;11.48;5.80;;;15.10;99.90;;;;;;7382762;19;20015;-79
2023/10/23 14:52:19;;;;;;;13.38;6.43;;;15.10;99.90;;;;;;7382596;19;20152;-78
2023/10/23 14:54:48;;;;;;;9.57;5.95;;;15.10;99.90;;;;;;7383468;19;20375;-78
2023/10/23 14:57:16;;;;;;;14.32;6.18;;;15.10;99.90;;;;;;7383403;19;20002;-80
2023/10/23 14:59:45;;;;;;;17.77;7.22;;;15.10;99.90;;;;;;7396283;19;20096;-78
2023/10/23 15:02:14;;;;;;;12.90;6.70;;;15.10;99.90;;;;;;7426598;19;20015;-79